createdAt,value
2024-01-17T00:01:51.768Z,9.15
2024-01-17T00:04:19.545Z,7.25
2024-01-17T00:06:47.072Z,8.50
2024-01-17T00:09:16.140Z,8.50
2024-01-17T00:11:44.356Z,8.57
2024-01-17T00:14:11.950Z,8.10
2024-01-17T00:19:08.632Z,8.05
2024-01-17T00:21:36.834Z,8.45
2024-01-17T00:24:04.684Z,8.27
2024-01-17T00:26:32.546Z,8.60
2024-01-17T00:29:00.952Z,7.03
2024-01-17T00:31:28.534Z,8.10
2024-01-17T00:33:56.271Z,7.85
2024-01-17T00:36:25.444Z,7.70
2024-01-17T00:38:53.710Z,8.23
2024-01-17T00:41:22.092Z,7.10
2024-01-17T00:43:50.224Z,7.85
2024-01-17T00:46:18.002Z,7.72
2024-01-17T00:51:22.891Z,7.30
2024-01-17T00:53:52.153Z,7.32
2024-01-17T00:56:19.900Z,7.22
2024-01-17T01:02:36.941Z,7.40
2024-01-17T01:05:04.686Z,7.07
2024-01-17T01:12:25.777Z,6.55
2024-01-17T01:14:53.258Z,7.00
2024-01-17T01:17:20.807Z,7.68
2024-01-17T01:19:49.681Z,6.97
2024-01-17T01:22:17.194Z,6.78
2024-01-17T01:24:44.720Z,8.60
2024-01-17T01:27:12.459Z,7.30
2024-01-17T01:29:40.005Z,6.70
2024-01-17T01:32:08.195Z,6.68
2024-01-17T01:34:35.708Z,6.85
2024-01-17T01:37:04.803Z,7.10
2024-01-17T01:39:32.525Z,7.20
2024-01-17T01:44:27.355Z,5.55
2024-01-17T01:46:55.468Z,7.00
2024-01-17T01:49:23.119Z,6.43
2024-01-17T01:54:21.294Z,6.35
2024-01-17T01:56:49.579Z,6.35
2024-01-17T01:59:18.747Z,6.60
2024-01-17T02:01:46.261Z,6.13
2024-01-17T02:04:13.981Z,6.45
2024-01-17T02:06:41.603Z,5.93
2024-01-17T02:09:09.979Z,6.90
2024-01-17T02:11:39.426Z,6.80
2024-01-17T02:14:07.540Z,6.35
2024-01-17T02:16:35.461Z,7.70
2024-01-17T02:19:02.953Z,6.20
2024-01-17T02:21:30.933Z,5.63
2024-01-17T02:24:14.804Z,6.57
2024-01-17T02:26:42.302Z,6.72
2024-01-17T02:29:09.732Z,5.80
2024-01-17T02:31:37.561Z,6.80
2024-01-17T02:34:05.392Z,6.47
2024-01-17T02:36:33.228Z,6.78
2024-01-17T02:41:29.502Z,6.20
2024-01-17T02:43:56.956Z,6.68
2024-01-17T02:46:26.617Z,6.00
2024-01-17T02:48:54.241Z,6.60
2024-01-17T02:58:46.916Z,6.63
2024-01-17T03:01:14.713Z,6.38
2024-01-17T03:03:42.340Z,5.75
2024-01-17T03:13:32.032Z,6.20
2024-01-17T03:16:00.827Z,6.72
2024-01-17T03:18:28.362Z,7.72
2024-01-17T03:23:23.600Z,6.72
2024-01-17T03:25:51.088Z,7.30
2024-01-17T03:28:18.589Z,6.78
2024-01-17T03:30:46.083Z,6.53
2024-01-17T03:33:14.951Z,7.18
2024-01-17T03:35:43.461Z,6.35
2024-01-17T03:38:10.941Z,7.60
2024-01-17T03:40:38.362Z,8.60
2024-01-17T03:43:05.800Z,7.40
2024-01-17T03:45:33.217Z,7.60
2024-01-17T03:48:00.772Z,7.32
2024-01-17T03:50:29.642Z,7.10
2024-01-17T03:52:57.150Z,7.80
2024-01-17T03:55:24.619Z,7.93
2024-01-17T03:57:52.103Z,7.75
2024-01-17T04:00:20.628Z,7.55
2024-01-17T04:02:48.167Z,7.78
2024-01-17T04:05:19.253Z,8.50
2024-01-17T04:07:48.092Z,7.95
2024-01-17T04:10:16.505Z,7.55
2024-01-17T04:12:44.012Z,7.38
2024-01-17T04:15:11.581Z,8.20
2024-01-17T04:17:39.212Z,6.25
2024-01-17T04:22:35.210Z,7.85
2024-01-17T04:25:04.168Z,9.18
2024-01-17T04:27:32.735Z,7.75
2024-01-17T04:30:00.382Z,8.07
2024-01-17T04:32:29.654Z,8.93
2024-01-17T04:34:57.282Z,7.55
2024-01-17T04:37:24.776Z,8.15
2024-01-17T04:39:52.255Z,8.90
2024-01-17T04:42:21.044Z,9.27
2024-01-17T04:44:49.522Z,8.75
2024-01-17T04:47:17.003Z,8.32
2024-01-17T04:49:46.008Z,8.95
2024-01-17T04:52:17.124Z,9.45
2024-01-17T04:54:44.702Z,9.00
2024-01-17T04:57:12.205Z,8.63
2024-01-17T04:59:41.085Z,8.77
2024-01-17T05:02:08.940Z,8.63
2024-01-17T05:04:36.523Z,8.95
2024-01-17T05:09:31.560Z,9.63
2024-01-17T05:11:59.409Z,9.05
2024-01-17T05:14:27.029Z,8.57
2024-01-17T05:21:50.709Z,8.25
2024-01-17T05:24:18.244Z,9.65
2024-01-17T05:26:47.283Z,10.35
2024-01-17T05:29:14.782Z,10.30
2024-01-17T05:31:42.229Z,9.48
2024-01-17T05:34:09.924Z,10.52
2024-01-17T05:36:38.581Z,9.52
2024-01-17T05:39:07.976Z,10.13
2024-01-17T05:41:35.722Z,9.10
2024-01-17T05:44:03.292Z,8.95
2024-01-17T05:46:30.790Z,9.80
2024-01-17T05:48:58.410Z,9.85
2024-01-17T05:53:53.494Z,9.68
2024-01-17T05:56:22.329Z,10.10
2024-01-17T05:58:50.311Z,12.93
2024-01-17T06:01:17.873Z,12.00
2024-01-17T06:06:12.783Z,11.43
2024-01-17T06:11:09.709Z,11.90
2024-01-17T06:13:38.526Z,12.38
2024-01-17T06:16:05.974Z,11.88
2024-01-17T06:18:33.525Z,10.80
2024-01-17T06:21:01.135Z,10.07
2024-01-17T06:25:58.928Z,9.48
2024-01-17T06:28:26.373Z,10.48
2024-01-17T06:30:55.235Z,9.98
2024-01-17T06:33:22.805Z,11.32
2024-01-17T06:35:51.129Z,10.95
2024-01-17T06:38:18.656Z,10.68
2024-01-17T06:40:46.125Z,10.20
2024-01-17T06:43:13.625Z,12.00
2024-01-17T06:45:41.181Z,12.02
2024-01-17T06:48:10.220Z,13.13
2024-01-17T06:50:37.818Z,13.82
2024-01-17T06:53:05.562Z,12.70
2024-01-17T06:55:33.162Z,12.82
2024-01-17T07:00:31.788Z,11.95
2024-01-17T07:03:01.781Z,10.75
2024-01-17T07:07:58.567Z,11.65
2024-01-17T07:10:26.184Z,11.45
2024-01-17T07:15:21.174Z,9.93
2024-01-17T07:20:16.236Z,10.27
2024-01-17T07:27:42.058Z,11.57
2024-01-17T07:30:10.169Z,10.25
2024-01-17T07:32:37.776Z,10.75
2024-01-17T07:37:33.190Z,10.50
2024-01-17T07:40:00.759Z,11.00
2024-01-17T07:42:30.058Z,10.40
2024-01-17T07:44:59.995Z,9.32
2024-01-17T07:47:28.059Z,10.85
2024-01-17T07:49:56.569Z,12.25
2024-01-17T07:52:24.312Z,11.40
2024-01-17T08:02:15.665Z,9.68
2024-01-17T08:04:44.144Z,11.75
2024-01-17T08:07:12.126Z,10.85
2024-01-17T08:09:39.796Z,11.90
2024-01-17T08:12:08.125Z,10.93
2024-01-17T08:14:36.507Z,11.70
2024-01-17T08:17:04.345Z,11.88
2024-01-17T08:19:34.370Z,12.40
2024-01-17T08:22:02.150Z,13.23
2024-01-17T08:24:29.884Z,11.43
2024-01-17T08:26:57.894Z,12.40
2024-01-17T08:29:25.817Z,11.55
2024-01-17T08:31:53.592Z,12.13
2024-01-17T08:36:51.597Z,11.90
2024-01-17T08:39:21.597Z,11.07
2024-01-17T08:41:49.771Z,11.90
2024-01-17T08:44:17.552Z,11.88
2024-01-17T08:49:14.775Z,12.18
2024-01-17T08:51:42.612Z,11.35
2024-01-17T08:54:12.462Z,10.85
2024-01-17T08:56:40.947Z,11.32
2024-01-17T08:59:08.700Z,11.85
2024-01-17T09:06:34.239Z,9.38
2024-01-17T09:09:02.119Z,9.43
2024-01-17T09:13:59.943Z,10.05
2024-01-17T09:16:27.788Z,11.15
2024-01-17T09:18:55.784Z,10.18
2024-01-17T09:21:23.525Z,10.02
2024-01-17T09:23:51.188Z,9.18
2024-01-17T09:28:46.644Z,9.95
2024-01-17T09:36:10.950Z,9.35
2024-01-17T09:38:38.913Z,9.15
2024-01-17T09:41:06.563Z,8.70
2024-01-17T09:48:30.375Z,9.02
2024-01-17T09:50:58.507Z,8.13
2024-01-17T09:53:30.326Z,8.43
2024-01-17T09:55:59.354Z,9.50
2024-01-17T09:58:28.597Z,10.07
2024-01-17T10:00:57.509Z,8.93
2024-01-17T10:03:26.267Z,10.02
2024-01-17T10:05:56.262Z,10.10
2024-01-17T10:08:23.953Z,9.75
2024-01-17T10:10:53.203Z,9.10
2024-01-17T10:13:20.780Z,10.07
2024-01-17T10:15:48.642Z,9.88
2024-01-17T10:18:16.988Z,9.23
2024-01-17T10:20:45.318Z,8.77
2024-01-17T10:23:15.379Z,9.40
2024-01-17T10:25:43.410Z,10.00
2024-01-17T10:28:12.897Z,10.80
2024-01-17T10:30:41.349Z,11.27
2024-01-17T10:33:10.197Z,11.43
2024-01-17T10:35:38.963Z,10.40
2024-01-17T10:38:06.668Z,10.70
2024-01-17T10:40:34.456Z,11.18
2024-01-17T10:45:35.127Z,10.98
2024-01-17T10:48:03.291Z,10.82
2024-01-17T10:50:31.392Z,10.90
2024-01-17T10:53:02.077Z,11.80
2024-01-17T10:55:31.543Z,11.05
2024-01-17T10:57:59.921Z,12.88
2024-01-17T11:00:33.235Z,10.98
2024-01-17T11:03:09.945Z,12.25
2024-01-17T11:05:42.634Z,12.10
2024-01-17T11:08:10.741Z,9.98
2024-01-17T11:10:38.730Z,11.95
2024-01-17T11:13:06.951Z,9.85
2024-01-17T11:15:37.412Z,11.68
2024-01-17T11:18:06.916Z,10.50
2024-01-17T11:20:35.064Z,11.27
2024-01-17T11:23:04.507Z,11.05
2024-01-17T11:25:37.149Z,11.00
2024-01-17T11:28:10.390Z,12.48
2024-01-17T11:30:51.461Z,11.32
2024-01-17T11:33:20.819Z,10.40
2024-01-17T11:35:50.243Z,10.48
2024-01-17T11:38:31.101Z,9.55
2024-01-17T11:41:02.103Z,10.63
2024-01-17T11:43:32.108Z,10.93
2024-01-17T11:46:00.832Z,11.10
2024-01-17T11:48:30.745Z,10.15
2024-01-17T11:51:02.211Z,10.32
2024-01-17T11:53:31.233Z,9.65
2024-01-17T11:55:59.737Z,10.60
2024-01-17T12:00:55.609Z,9.32
2024-01-17T12:03:33.845Z,9.98
2024-01-17T12:06:01.872Z,9.82
2024-01-17T12:08:30.294Z,9.80
2024-01-17T12:10:59.169Z,10.80
2024-01-17T12:13:27.676Z,11.38
2024-01-17T12:15:56.610Z,9.57
2024-01-17T12:18:24.956Z,10.25
2024-01-17T12:20:55.526Z,9.88
2024-01-17T12:23:23.999Z,10.02
2024-01-17T12:25:53.804Z,12.48
2024-01-17T12:28:22.098Z,10.80
2024-01-17T12:30:59.859Z,9.70
2024-01-17T12:33:28.865Z,9.93
2024-01-17T12:35:59.091Z,10.05
2024-01-17T12:38:26.946Z,10.40
2024-01-17T12:43:22.494Z,9.68
2024-01-17T12:45:50.837Z,9.45
2024-01-17T12:48:19.407Z,10.20
2024-01-17T12:50:49.308Z,9.85
2024-01-17T12:53:19.452Z,11.10
2024-01-17T12:55:47.653Z,10.40
2024-01-17T12:58:15.632Z,9.07
2024-01-17T13:00:43.731Z,10.60
2024-01-17T13:03:13.501Z,9.70
2024-01-17T13:05:41.495Z,10.65
2024-01-17T13:08:09.898Z,9.95
2024-01-17T13:10:39.395Z,11.85
2024-01-17T13:13:09.357Z,10.32
2024-01-17T13:15:38.507Z,9.95
2024-01-17T13:18:07.411Z,10.10
2024-01-17T13:20:35.324Z,11.38
2024-01-17T13:30:28.682Z,10.50
2024-01-17T13:32:57.304Z,11.73
2024-01-17T13:35:25.080Z,11.30
2024-01-17T13:37:52.733Z,11.27
2024-01-17T13:40:21.887Z,11.93
2024-01-17T13:42:50.791Z,11.40
2024-01-17T13:45:18.788Z,11.93
2024-01-17T13:47:48.081Z,13.13
2024-01-17T13:50:23.116Z,12.27
2024-01-17T13:52:53.268Z,11.75
2024-01-17T13:55:23.211Z,11.52
2024-01-17T13:57:51.043Z,11.50
2024-01-17T14:00:20.505Z,12.55
2024-01-17T14:02:50.512Z,12.93
2024-01-17T14:05:18.989Z,11.85
2024-01-17T14:07:46.948Z,13.02
2024-01-17T14:10:16.002Z,13.88
2024-01-17T14:12:44.393Z,13.52
2024-01-17T14:15:12.376Z,12.15
2024-01-17T14:17:40.298Z,12.23
2024-01-17T14:20:18.011Z,14.63
2024-01-17T14:22:46.053Z,12.88
2024-01-17T14:27:43.870Z,11.88
2024-01-17T14:32:40.850Z,14.35
2024-01-17T14:35:11.291Z,14.02
2024-01-17T14:37:40.869Z,14.25
2024-01-17T14:40:10.179Z,13.27
2024-01-17T14:42:39.428Z,12.23
2024-01-17T14:45:09.600Z,12.90
2024-01-17T14:47:37.504Z,11.13
2024-01-17T14:50:05.909Z,13.98
2024-01-17T14:52:35.316Z,12.50
2024-01-17T14:55:05.617Z,13.40
2024-01-17T14:57:33.494Z,14.02
2024-01-17T15:02:28.852Z,13.50
2024-01-17T15:07:24.670Z,12.73
2024-01-17T15:09:53.849Z,13.57
2024-01-17T15:12:21.602Z,14.10
2024-01-17T15:17:17.542Z,14.40
2024-01-17T15:19:46.136Z,13.05
2024-01-17T15:22:13.926Z,12.75
2024-01-17T15:24:41.552Z,14.48
2024-01-17T15:27:10.509Z,13.50
2024-01-17T15:29:44.076Z,13.77
2024-01-17T15:32:12.467Z,14.13
2024-01-17T15:34:41.316Z,13.02
2024-01-17T15:37:09.269Z,13.30
2024-01-17T15:39:37.612Z,14.55
2024-01-17T15:42:07.179Z,14.65
2024-01-17T15:44:37.482Z,13.27
2024-01-17T15:47:06.896Z,14.52
2024-01-17T15:49:34.817Z,14.27
2024-01-17T15:52:02.614Z,13.48
2024-01-17T15:54:30.320Z,14.35
2024-01-17T15:59:26.163Z,13.02
2024-01-17T16:04:23.319Z,13.95
2024-01-17T16:06:51.227Z,14.50
2024-01-17T16:09:22.217Z,14.10
2024-01-17T16:11:53.265Z,13.48
2024-01-17T16:14:21.236Z,15.90
2024-01-17T16:16:50.638Z,14.88
2024-01-17T16:19:18.650Z,14.82
2024-01-17T16:21:52.857Z,14.48
2024-01-17T16:24:20.765Z,14.77
2024-01-17T16:26:48.718Z,16.33
2024-01-17T16:29:16.430Z,16.40
2024-01-17T16:36:39.177Z,15.63
2024-01-17T16:39:09.609Z,16.58
2024-01-17T16:41:39.627Z,19.45
2024-01-17T16:44:08.665Z,18.65
2024-01-17T16:46:38.347Z,17.35
2024-01-17T16:49:07.043Z,17.08
2024-01-17T16:51:34.878Z,16.08
2024-01-17T16:56:32.362Z,14.52
2024-01-17T16:59:00.281Z,16.42
2024-01-17T17:01:28.163Z,16.67
2024-01-17T17:03:56.353Z,14.95
2024-01-17T17:06:24.760Z,16.67
2024-01-17T17:08:52.564Z,15.45
2024-01-17T17:11:21.102Z,15.93
2024-01-17T17:13:50.264Z,17.45
2024-01-17T17:16:20.474Z,17.42
2024-01-17T17:18:48.676Z,16.58
2024-01-17T17:21:17.334Z,17.27
2024-01-17T17:23:45.565Z,16.17
2024-01-17T17:26:13.381Z,16.73
2024-01-17T17:31:14.517Z,16.38
2024-01-17T17:33:42.714Z,15.63
2024-01-17T17:36:10.670Z,17.25
2024-01-17T17:41:07.394Z,16.85
2024-01-17T17:43:35.181Z,20.15
2024-01-17T17:46:04.658Z,16.02
2024-01-17T17:48:36.581Z,18.83
2024-01-17T17:51:05.078Z,18.05
2024-01-17T17:53:32.725Z,18.15
2024-01-17T17:56:00.559Z,18.85
2024-01-17T17:58:28.398Z,20.95
2024-01-17T18:00:57.829Z,19.23
2024-01-17T18:03:26.265Z,19.50
2024-01-17T18:05:55.749Z,18.20
2024-01-17T18:08:23.484Z,18.90
2024-01-17T18:10:53.240Z,19.02
2024-01-17T18:13:23.839Z,19.00
2024-01-17T18:15:51.897Z,18.52
2024-01-17T18:18:19.762Z,17.33
2024-01-17T18:20:49.076Z,18.90
2024-01-17T18:23:18.770Z,17.75
2024-01-17T18:25:46.502Z,19.23
2024-01-17T18:30:42.473Z,16.55
2024-01-17T18:33:10.282Z,18.45
2024-01-17T18:38:05.928Z,16.15
2024-01-17T18:40:35.779Z,17.88
2024-01-17T18:43:03.929Z,20.30
2024-01-17T18:45:31.734Z,18.15
2024-01-17T18:57:50.859Z,15.75
2024-01-17T19:00:18.718Z,16.17
2024-01-17T19:02:48.117Z,16.92
2024-01-17T19:05:16.231Z,17.67
2024-01-17T19:07:44.962Z,16.88
2024-01-17T19:10:12.655Z,17.73
2024-01-17T19:12:40.506Z,18.00
2024-01-17T19:17:37.197Z,19.05
2024-01-17T19:20:06.964Z,19.30
2024-01-17T19:22:35.295Z,20.35
2024-01-17T19:25:04.128Z,21.33
2024-01-17T19:27:33.917Z,19.13
2024-01-17T19:30:01.628Z,20.13
2024-01-17T19:34:58.339Z,19.63
2024-01-17T19:37:25.965Z,20.88
2024-01-17T19:39:53.702Z,17.95
2024-01-17T19:44:50.902Z,18.50
2024-01-17T19:47:18.951Z,19.20
2024-01-17T19:49:46.935Z,20.60
2024-01-17T19:52:16.673Z,19.05
2024-01-17T19:54:50.165Z,19.17
2024-01-17T19:57:18.043Z,19.30
2024-01-17T19:59:46.245Z,20.02
2024-01-17T20:02:16.589Z,18.58
2024-01-17T20:04:45.192Z,18.85
2024-01-17T20:07:13.409Z,19.80
2024-01-17T20:09:45.840Z,19.88
2024-01-17T20:12:14.877Z,19.42
2024-01-17T20:14:43.819Z,20.92
2024-01-17T20:17:11.423Z,20.60
2024-01-17T20:19:39.070Z,20.27
2024-01-17T20:22:07.078Z,20.83
2024-01-17T20:24:34.711Z,20.30
2024-01-17T20:29:34.520Z,21.88
2024-01-17T20:32:05.067Z,21.77
2024-01-17T20:34:33.028Z,22.27
2024-01-17T20:37:01.565Z,20.80
2024-01-17T20:39:31.033Z,21.38
2024-01-17T20:42:00.372Z,22.42
2024-01-17T20:44:32.144Z,22.08
2024-01-17T20:47:00.049Z,21.73
2024-01-17T20:49:27.905Z,23.45
2024-01-17T20:51:56.089Z,23.17
2024-01-17T20:54:24.392Z,21.92
2024-01-17T20:56:52.906Z,22.45
2024-01-17T20:59:21.749Z,22.13
2024-01-17T21:01:51.905Z,21.98
2024-01-17T21:04:19.536Z,22.38
2024-01-17T21:06:47.630Z,24.23
2024-01-17T21:09:16.740Z,24.52
2024-01-17T21:11:44.665Z,25.75
2024-01-17T21:19:09.019Z,22.73
2024-01-17T21:21:40.632Z,23.40
2024-01-17T21:24:08.340Z,23.40
2024-01-17T21:26:38.906Z,23.33
2024-01-17T21:29:07.297Z,24.55
2024-01-17T21:31:37.585Z,25.38
2024-01-17T21:34:06.567Z,23.85
2024-01-17T21:36:36.165Z,23.05
2024-01-17T21:39:05.398Z,23.02
2024-01-17T21:41:33.192Z,21.30
2024-01-17T21:44:00.962Z,21.58
2024-01-17T21:48:56.959Z,21.02
2024-01-17T21:53:53.938Z,20.17
2024-01-17T21:56:22.188Z,19.38
2024-01-17T21:58:49.940Z,19.58
2024-01-17T22:01:17.731Z,19.60
2024-01-17T22:03:45.624Z,21.17
2024-01-17T22:08:48.929Z,20.10
2024-01-17T22:11:24.413Z,19.27
2024-01-17T22:13:52.313Z,20.70
2024-01-17T22:16:20.068Z,19.95
2024-01-17T22:21:15.500Z,18.65
2024-01-17T22:23:43.263Z,18.27
2024-01-17T22:28:39.810Z,18.95
2024-01-17T22:31:09.037Z,19.60
2024-01-17T22:33:37.225Z,20.67
2024-01-17T22:36:05.147Z,20.30
2024-01-17T22:38:32.872Z,20.67
2024-01-17T22:41:00.545Z,21.33
2024-01-17T22:43:28.312Z,20.92
2024-01-17T22:50:53.006Z,19.63
2024-01-17T22:53:20.693Z,20.83
2024-01-17T22:58:15.909Z,20.13
2024-01-17T23:00:43.671Z,20.48
2024-01-17T23:03:11.617Z,19.20
2024-01-17T23:05:39.496Z,20.90
2024-01-17T23:10:40.237Z,22.08
2024-01-17T23:13:07.846Z,21.25
2024-01-17T23:18:03.499Z,22.63
2024-01-17T23:20:31.761Z,20.58
2024-01-17T23:22:59.498Z,20.88
2024-01-17T23:25:27.194Z,20.25
2024-01-17T23:32:51.884Z,19.60
2024-01-17T23:35:19.754Z,19.75
2024-01-17T23:37:50.796Z,19.17
2024-01-17T23:40:21.326Z,19.00
2024-01-17T23:42:48.955Z,18.95
2024-01-17T23:47:44.270Z,19.67
2024-01-17T23:50:13.349Z,18.40
2024-01-17T23:52:41.028Z,18.98
2024-01-17T23:55:09.209Z,17.58
2024-01-17T23:57:37.307Z,17.60
